sensor_id;sensor_type;location;lat;lon;timestamp;P1;durP1;ratioP1;P2;durP2;ratioP2
70796;SDS011;63842;52.144;5.360;2022-11-04T00:00:06;5.60;;;1.23;;
70796;SDS011;63842;52.144;5.360;2022-11-04T00:02:33;8.77;;;1.40;;
70796;SDS011;63842;52.144;5.360;2022-11-04T00:05:01;4.85;;;1.02;;
70796;SDS011;63842;52.144;5.360;2022-11-04T00:07:28;5.57;;;1.15;;
70796;SDS011;63842;52.144;5.360;2022-11-04T00:10:14;7.22;;;1.17;;
70796;SDS011;63842;52.144;5.360;2022-11-04T00:12:41;7.78;;;1.10;;
70796;SDS011;63842;52.144;5.360;2022-11-04T00:15:08;2.35;;;1.20;;
70796;SDS011;63842;52.144;5.360;2022-11-04T00:17:54;5.18;;;1.20;;
70796;SDS011;63842;52.144;5.360;2022-11-04T00:20:22;3.88;;;1.10;;
70796;SDS011;63842;52.144;5.360;2022-11-04T00:23:07;4.97;;;0.90;;
70796;SDS011;63842;52.144;5.360;2022-11-04T00:25:54;5.88;;;1.20;;
70796;SDS011;63842;52.144;5.360;2022-11-04T00:28:40;6.43;;;1.33;;
70796;SDS011;63842;52.144;5.360;2022-11-04T00:31:10;4.50;;;1.10;;
70796;SDS011;63842;52.144;5.360;2022-11-04T00:33:56;5.10;;;1.17;;
70796;SDS011;63842;52.144;5.360;2022-11-04T00:36:24;4.40;;;1.25;;
70796;SDS011;63842;52.144;5.360;2022-11-04T00:38:51;5.97;;;0.90;;
70796;SDS011;63842;52.144;5.360;2022-11-04T00:41:19;3.38;;;0.95;;
70796;SDS011;63842;52.144;5.360;2022-11-04T00:43:54;6.75;;;1.30;;
70796;SDS011;63842;52.144;5.360;2022-11-04T00:46:21;3.83;;;1.10;;
70796;SDS011;63842;52.144;5.360;2022-11-04T00:48:49;3.85;;;1.17;;
70796;SDS011;63842;52.144;5.360;2022-11-04T00:51:16;8.25;;;1.30;;
70796;SDS011;63842;52.144;5.360;2022-11-04T00:53:44;7.70;;;1.60;;
70796;SDS011;63842;52.144;5.360;2022-11-04T00:56:12;6.35;;;1.40;;
70796;SDS011;63842;52.144;5.360;2022-11-04T00:58:39;4.05;;;1.30;;
70796;SDS011;63842;52.144;5.360;2022-11-04T01:01:08;5.95;;;1.40;;
70796;SDS011;63842;52.144;5.360;2022-11-04T01:03:43;7.70;;;1.55;;
70796;SDS011;63842;52.144;5.360;2022-11-04T01:06:14;7.60;;;1.50;;
70796;SDS011;63842;52.144;5.360;2022-11-04T01:08:41;5.80;;;1.63;;
70796;SDS011;63842;52.144;5.360;2022-11-04T01:11:09;4.72;;;1.50;;
70796;SDS011;63842;52.144;5.360;2022-11-04T01:13:37;5.55;;;1.55;;
70796;SDS011;63842;52.144;5.360;2022-11-04T01:16:05;5.95;;;1.60;;
70796;SDS011;63842;52.144;5.360;2022-11-04T01:18:33;6.47;;;1.80;;
70796;SDS011;63842;52.144;5.360;2022-11-04T01:21:01;7.05;;;1.83;;
70796;SDS011;63842;52.144;5.360;2022-11-04T01:23:35;4.40;;;1.35;;
70796;SDS011;63842;52.144;5.360;2022-11-04T01:26:09;7.28;;;1.60;;
70796;SDS011;63842;52.144;5.360;2022-11-04T01:28:37;6.00;;;1.70;;
70796;SDS011;63842;52.144;5.360;2022-11-04T01:31:05;4.88;;;1.50;;
70796;SDS011;63842;52.144;5.360;2022-11-04T01:33:33;4.38;;;1.40;;
70796;SDS011;63842;52.144;5.360;2022-11-04T01:36:00;6.15;;;1.50;;
70796;SDS011;63842;52.144;5.360;2022-11-04T01:38:27;5.32;;;1.40;;
70796;SDS011;63842;52.144;5.360;2022-11-04T01:40:55;4.13;;;1.30;;
70796;SDS011;63842;52.144;5.360;2022-11-04T01:43:22;4.72;;;1.50;;
70796;SDS011;63842;52.144;5.360;2022-11-04T01:45:54;7.65;;;1.60;;
70796;SDS011;63842;52.144;5.360;2022-11-04T01:48:28;3.75;;;1.55;;
70796;SDS011;63842;52.144;5.360;2022-11-04T01:50:56;5.22;;;1.35;;
70796;SDS011;63842;52.144;5.360;2022-11-04T01:53:32;4.15;;;1.13;;
70796;SDS011;63842;52.144;5.360;2022-11-04T01:58:33;3.40;;;1.05;;
70796;SDS011;63842;52.144;5.360;2022-11-04T02:01:00;3.50;;;1.30;;
70796;SDS011;63842;52.144;5.360;2022-11-04T02:03:33;3.47;;;1.10;;
70796;SDS011;63842;52.144;5.360;2022-11-04T02:06:03;3.80;;;1.00;;
70796;SDS011;63842;52.144;5.360;2022-11-04T02:08:31;6.03;;;1.17;;
70796;SDS011;63842;52.144;5.360;2022-11-04T02:11:00;3.90;;;0.98;;
70796;SDS011;63842;52.144;5.360;2022-11-04T02:13:32;3.50;;;0.90;;
70796;SDS011;63842;52.144;5.360;2022-11-04T02:26:35;1.48;;;0.80;;
70796;SDS011;63842;52.144;5.360;2022-11-04T02:32:01;3.90;;;1.00;;
70796;SDS011;63842;52.144;5.360;2022-11-04T02:34:32;3.58;;;0.80;;
70796;SDS011;63842;52.144;5.360;2022-11-04T02:37:15;3.10;;;0.90;;
70796;SDS011;63842;52.144;5.360;2022-11-04T02:42:27;2.05;;;0.63;;
70796;SDS011;63842;52.144;5.360;2022-11-04T02:44:58;2.40;;;0.60;;
70796;SDS011;63842;52.144;5.360;2022-11-04T02:47:29;3.40;;;0.77;;
70796;SDS011;63842;52.144;5.360;2022-11-04T02:50:11;2.88;;;0.73;;
70796;SDS011;63842;52.144;5.360;2022-11-04T02:52:58;2.72;;;0.70;;
70796;SDS011;63842;52.144;5.360;2022-11-04T02:55:29;2.08;;;0.80;;
70796;SDS011;63842;52.144;5.360;2022-11-04T02:57:58;3.15;;;0.60;;
70796;SDS011;63842;52.144;5.360;2022-11-04T03:00:30;2.38;;;0.80;;
70796;SDS011;63842;52.144;5.360;2022-11-04T03:02:59;3.83;;;0.70;;
70796;SDS011;63842;52.144;5.360;2022-11-04T03:05:29;2.30;;;0.68;;
70796;SDS011;63842;52.144;5.360;2022-11-04T03:07:59;3.10;;;0.90;;
70796;SDS011;63842;52.144;5.360;2022-11-04T03:10:30;3.13;;;0.93;;
70796;SDS011;63842;52.144;5.360;2022-11-04T03:15:30;1.85;;;0.63;;
70796;SDS011;63842;52.144;5.360;2022-11-04T03:18:02;2.33;;;0.70;;
70796;SDS011;63842;52.144;5.360;2022-11-04T03:20:43;2.35;;;0.80;;
70796;SDS011;63842;52.144;5.360;2022-11-04T03:23:12;2.35;;;0.77;;
70796;SDS011;63842;52.144;5.360;2022-11-04T03:25:40;3.70;;;0.85;;
70796;SDS011;63842;52.144;5.360;2022-11-04T03:28:14;1.30;;;0.82;;
70796;SDS011;63842;52.144;5.360;2022-11-04T03:30:46;2.17;;;0.82;;
70796;SDS011;63842;52.144;5.360;2022-11-04T03:35:42;2.47;;;0.90;;
70796;SDS011;63842;52.144;5.360;2022-11-04T03:38:09;2.35;;;0.80;;
70796;SDS011;63842;52.144;5.360;2022-11-04T03:40:36;3.63;;;0.90;;
70796;SDS011;63842;52.144;5.360;2022-11-04T03:43:11;2.42;;;0.80;;
70796;SDS011;63842;52.144;5.360;2022-11-04T03:45:41;2.58;;;1.00;;
70796;SDS011;63842;52.144;5.360;2022-11-04T03:48:08;2.92;;;0.80;;
70796;SDS011;63842;52.144;5.360;2022-11-04T03:50:43;2.85;;;1.00;;
70796;SDS011;63842;52.144;5.360;2022-11-04T03:53:13;3.40;;;1.00;;
70796;SDS011;63842;52.144;5.360;2022-11-04T03:56:31;3.13;;;1.00;;
70796;SDS011;63842;52.144;5.360;2022-11-04T03:58:53;4.20;;;1.20;;
70796;SDS011;63842;52.144;5.360;2022-11-04T04:01:27;5.70;;;1.17;;
70796;SDS011;63842;52.144;5.360;2022-11-04T04:06:25;5.78;;;1.30;;
70796;SDS011;63842;52.144;5.360;2022-11-04T04:08:55;3.45;;;1.20;;
70796;SDS011;63842;52.144;5.360;2022-11-04T04:11:40;3.65;;;1.20;;
70796;SDS011;63842;52.144;5.360;2022-11-04T04:17:10;4.75;;;1.10;;
70796;SDS011;63842;52.144;5.360;2022-11-04T04:19:44;6.30;;;1.00;;
70796;SDS011;63842;52.144;5.360;2022-11-04T04:22:18;2.22;;;1.00;;
70796;SDS011;63842;52.144;5.360;2022-11-04T04:24:47;4.68;;;1.40;;
70796;SDS011;63842;52.144;5.360;2022-11-04T04:27:35;4.32;;;1.65;;
70796;SDS011;63842;52.144;5.360;2022-11-04T04:30:08;4.38;;;1.40;;
70796;SDS011;63842;52.144;5.360;2022-11-04T04:32:58;4.82;;;1.70;;
70796;SDS011;63842;52.144;5.360;2022-11-04T04:35:29;5.63;;;1.85;;
70796;SDS011;63842;52.144;5.360;2022-11-04T04:38:13;6.68;;;2.38;;
70796;SDS011;63842;52.144;5.360;2022-11-04T04:41:02;8.18;;;2.85;;
70796;SDS011;63842;52.144;5.360;2022-11-04T04:43:48;8.98;;;3.50;;
70796;SDS011;63842;52.144;5.360;2022-11-04T04:46:34;10.13;;;4.32;;
70796;SDS011;63842;52.144;5.360;2022-11-04T04:49:04;12.88;;;5.07;;
70796;SDS011;63842;52.144;5.360;2022-11-04T04:51:31;14.57;;;5.35;;
70796;SDS011;63842;52.144;5.360;2022-11-04T04:53:59;14.73;;;6.32;;
70796;SDS011;63842;52.144;5.360;2022-11-04T04:56:26;15.77;;;6.65;;
70796;SDS011;63842;52.144;5.360;2022-11-04T04:58:53;14.43;;;5.95;;
70796;SDS011;63842;52.144;5.360;2022-11-04T05:01:21;15.32;;;6.50;;
70796;SDS011;63842;52.144;5.360;2022-11-04T05:03:48;13.80;;;5.85;;
70796;SDS011;63842;52.144;5.360;2022-11-04T05:06:15;13.57;;;6.13;;
70796;SDS011;63842;52.144;5.360;2022-11-04T05:08:42;15.48;;;6.53;;
70796;SDS011;63842;52.144;5.360;2022-11-04T05:11:10;15.32;;;6.47;;
70796;SDS011;63842;52.144;5.360;2022-11-04T05:13:38;14.60;;;6.60;;
70796;SDS011;63842;52.144;5.360;2022-11-04T05:16:07;14.07;;;6.43;;
70796;SDS011;63842;52.144;5.360;2022-11-04T05:18:34;15.13;;;6.13;;
70796;SDS011;63842;52.144;5.360;2022-11-04T05:21:06;15.15;;;6.72;;
70796;SDS011;63842;52.144;5.360;2022-11-04T05:23:33;14.68;;;6.38;;
70796;SDS011;63842;52.144;5.360;2022-11-04T05:26:01;16.90;;;7.00;;
70796;SDS011;63842;52.144;5.360;2022-11-04T05:28:28;14.95;;;6.35;;
70796;SDS011;63842;52.144;5.360;2022-11-04T05:30:55;13.40;;;6.28;;
70796;SDS011;63842;52.144;5.360;2022-11-04T05:33:23;14.90;;;6.65;;
70796;SDS011;63842;52.144;5.360;2022-11-04T05:35:50;15.40;;;7.15;;
70796;SDS011;63842;52.144;5.360;2022-11-04T05:38:17;16.50;;;6.20;;
70796;SDS011;63842;52.144;5.360;2022-11-04T05:40:44;16.10;;;6.60;;
70796;SDS011;63842;52.144;5.360;2022-11-04T05:43:12;14.88;;;6.78;;
70796;SDS011;63842;52.144;5.360;2022-11-04T05:45:39;14.15;;;6.93;;
70796;SDS011;63842;52.144;5.360;2022-11-04T05:48:06;16.25;;;7.00;;
70796;SDS011;63842;52.144;5.360;2022-11-04T05:50:33;16.42;;;6.88;;
70796;SDS011;63842;52.144;5.360;2022-11-04T05:53:00;16.92;;;6.93;;
70796;SDS011;63842;52.144;5.360;2022-11-04T05:55:28;16.50;;;6.93;;
70796;SDS011;63842;52.144;5.360;2022-11-04T05:57:55;17.27;;;6.93;;
70796;SDS011;63842;52.144;5.360;2022-11-04T06:00:25;14.93;;;6.60;;
70796;SDS011;63842;52.144;5.360;2022-11-04T06:02:53;15.65;;;7.10;;
70796;SDS011;63842;52.144;5.360;2022-11-04T06:05:24;14.90;;;6.65;;
70796;SDS011;63842;52.144;5.360;2022-11-04T06:07:52;17.00;;;7.55;;
70796;SDS011;63842;52.144;5.360;2022-11-04T06:10:19;14.02;;;6.72;;
70796;SDS011;63842;52.144;5.360;2022-11-04T06:12:47;16.38;;;7.75;;
70796;SDS011;63842;52.144;5.360;2022-11-04T06:15:14;16.60;;;7.18;;
70796;SDS011;63842;52.144;5.360;2022-11-04T06:17:41;13.90;;;6.70;;
70796;SDS011;63842;52.144;5.360;2022-11-04T06:20:09;15.10;;;6.75;;
70796;SDS011;63842;52.144;5.360;2022-11-04T06:22:36;15.88;;;7.53;;
70796;SDS011;63842;52.144;5.360;2022-11-04T06:25:03;14.90;;;6.97;;
70796;SDS011;63842;52.144;5.360;2022-11-04T06:27:31;15.90;;;7.50;;
70796;SDS011;63842;52.144;5.360;2022-11-04T06:29:58;15.43;;;6.93;;
70796;SDS011;63842;52.144;5.360;2022-11-04T06:32:25;14.98;;;6.95;;
70796;SDS011;63842;52.144;5.360;2022-11-04T06:34:52;14.70;;;7.00;;
70796;SDS011;63842;52.144;5.360;2022-11-04T06:37:19;13.40;;;6.63;;
70796;SDS011;63842;52.144;5.360;2022-11-04T06:39:47;15.38;;;7.43;;
70796;SDS011;63842;52.144;5.360;2022-11-04T06:42:14;14.32;;;6.78;;
70796;SDS011;63842;52.144;5.360;2022-11-04T06:44:41;17.15;;;7.97;;
70796;SDS011;63842;52.144;5.360;2022-11-04T06:47:08;14.95;;;6.95;;
70796;SDS011;63842;52.144;5.360;2022-11-04T06:49:36;14.80;;;6.90;;
70796;SDS011;63842;52.144;5.360;2022-11-04T06:52:03;14.43;;;6.68;;
70796;SDS011;63842;52.144;5.360;2022-11-04T06:54:30;13.63;;;6.45;;
70796;SDS011;63842;52.144;5.360;2022-11-04T06:56:58;14.13;;;5.80;;
70796;SDS011;63842;52.144;5.360;2022-11-04T06:59:25;13.25;;;5.65;;
70796;SDS011;63842;52.144;5.360;2022-11-04T07:01:52;13.70;;;6.38;;
70796;SDS011;63842;52.144;5.360;2022-11-04T07:04:20;13.18;;;5.50;;
70796;SDS011;63842;52.144;5.360;2022-11-04T07:06:47;12.77;;;5.13;;
70796;SDS011;63842;52.144;5.360;2022-11-04T07:09:14;13.07;;;5.32;;
70796;SDS011;63842;52.144;5.360;2022-11-04T07:11:42;12.07;;;5.25;;
70796;SDS011;63842;52.144;5.360;2022-11-04T07:14:10;13.23;;;5.03;;
70796;SDS011;63842;52.144;5.360;2022-11-04T07:16:37;13.38;;;5.47;;
70796;SDS011;63842;52.144;5.360;2022-11-04T07:19:05;11.38;;;4.47;;
70796;SDS011;63842;52.144;5.360;2022-11-04T07:21:32;11.13;;;4.50;;
70796;SDS011;63842;52.144;5.360;2022-11-04T07:24:00;12.90;;;4.55;;
70796;SDS011;63842;52.144;5.360;2022-11-04T07:26:27;11.52;;;4.43;;
70796;SDS011;63842;52.144;5.360;2022-11-04T07:28:54;10.85;;;4.85;;
70796;SDS011;63842;52.144;5.360;2022-11-04T07:31:22;11.73;;;4.78;;
70796;SDS011;63842;52.144;5.360;2022-11-04T07:33:49;11.68;;;4.90;;
70796;SDS011;63842;52.144;5.360;2022-11-04T07:36:17;11.68;;;4.25;;
70796;SDS011;63842;52.144;5.360;2022-11-04T07:38:45;14.55;;;4.28;;
70796;SDS011;63842;52.144;5.360;2022-11-04T07:41:13;12.20;;;4.28;;
70796;SDS011;63842;52.144;5.360;2022-11-04T07:43:40;10.38;;;4.10;;
70796;SDS011;63842;52.144;5.360;2022-11-04T07:46:11;11.57;;;3.70;;
70796;SDS011;63842;52.144;5.360;2022-11-04T07:48:39;14.13;;;4.40;;
70796;SDS011;63842;52.144;5.360;2022-11-04T07:51:07;12.88;;;3.90;;
70796;SDS011;63842;52.144;5.360;2022-11-04T07:53:35;12.88;;;4.40;;
70796;SDS011;63842;52.144;5.360;2022-11-04T07:56:06;9.93;;;4.03;;
70796;SDS011;63842;52.144;5.360;2022-11-04T07:58:34;10.57;;;4.30;;
70796;SDS011;63842;52.144;5.360;2022-11-04T08:01:02;14.57;;;4.40;;
70796;SDS011;63842;52.144;5.360;2022-11-04T08:05:58;9.80;;;3.95;;
70796;SDS011;63842;52.144;5.360;2022-11-04T08:08:26;9.27;;;3.80;;
70796;SDS011;63842;52.144;5.360;2022-11-04T08:10:54;9.07;;;3.88;;
70796;SDS011;63842;52.144;5.360;2022-11-04T08:13:22;12.30;;;4.05;;
70796;SDS011;63842;52.144;5.360;2022-11-04T08:15:49;11.18;;;3.95;;
70796;SDS011;63842;52.144;5.360;2022-11-04T08:18:17;12.10;;;3.78;;
70796;SDS011;63842;52.144;5.360;2022-11-04T08:20:48;10.07;;;4.00;;
70796;SDS011;63842;52.144;5.360;2022-11-04T08:23:15;9.90;;;4.10;;
70796;SDS011;63842;52.144;5.360;2022-11-04T08:25:43;9.02;;;3.85;;
70796;SDS011;63842;52.144;5.360;2022-11-04T08:28:10;11.65;;;3.90;;
70796;SDS011;63842;52.144;5.360;2022-11-04T08:33:23;10.80;;;3.83;;
70796;SDS011;63842;52.144;5.360;2022-11-04T08:35:50;10.82;;;4.13;;
70796;SDS011;63842;52.144;5.360;2022-11-04T08:38:18;10.32;;;4.00;;
70796;SDS011;63842;52.144;5.360;2022-11-04T08:40:45;11.93;;;4.10;;
70796;SDS011;63842;52.144;5.360;2022-11-04T08:43:12;10.57;;;3.88;;
70796;SDS011;63842;52.144;5.360;2022-11-04T08:45:40;11.52;;;3.78;;
70796;SDS011;63842;52.144;5.360;2022-11-04T08:48:08;12.07;;;3.80;;
70796;SDS011;63842;52.144;5.360;2022-11-04T08:50:36;9.70;;;3.92;;
70796;SDS011;63842;52.144;5.360;2022-11-04T08:53:03;10.77;;;3.95;;
70796;SDS011;63842;52.144;5.360;2022-11-04T08:55:31;10.77;;;3.90;;
70796;SDS011;63842;52.144;5.360;2022-11-04T08:57:59;11.35;;;3.75;;
70796;SDS011;63842;52.144;5.360;2022-11-04T09:00:26;10.80;;;4.30;;
70796;SDS011;63842;52.144;5.360;2022-11-04T09:02:54;9.45;;;3.75;;
70796;SDS011;63842;52.144;5.360;2022-11-04T09:05:21;11.88;;;3.40;;
70796;SDS011;63842;52.144;5.360;2022-11-04T09:07:48;10.50;;;3.53;;
70796;SDS011;63842;52.144;5.360;2022-11-04T09:10:16;12.00;;;4.13;;
70796;SDS011;63842;52.144;5.360;2022-11-04T09:12:43;11.02;;;4.13;;
70796;SDS011;63842;52.144;5.360;2022-11-04T09:15:11;11.25;;;3.85;;
70796;SDS011;63842;52.144;5.360;2022-11-04T09:17:38;9.63;;;3.72;;
70796;SDS011;63842;52.144;5.360;2022-11-04T09:20:06;10.75;;;4.47;;
70796;SDS011;63842;52.144;5.360;2022-11-04T09:22:33;9.95;;;4.20;;
70796;SDS011;63842;52.144;5.360;2022-11-04T09:25:01;13.63;;;4.70;;
70796;SDS011;63842;52.144;5.360;2022-11-04T09:27:28;11.50;;;4.80;;
70796;SDS011;63842;52.144;5.360;2022-11-04T09:29:55;10.93;;;4.30;;
70796;SDS011;63842;52.144;5.360;2022-11-04T09:32:22;11.05;;;4.35;;
70796;SDS011;63842;52.144;5.360;2022-11-04T09:34:50;11.75;;;4.63;;
70796;SDS011;63842;52.144;5.360;2022-11-04T09:37:17;13.65;;;5.72;;
70796;SDS011;63842;52.144;5.360;2022-11-04T09:39:44;15.60;;;6.10;;
70796;SDS011;63842;52.144;5.360;2022-11-04T09:45:00;16.33;;;6.68;;
70796;SDS011;63842;52.144;5.360;2022-11-04T09:47:48;15.27;;;7.30;;
70796;SDS011;63842;52.144;5.360;2022-11-04T09:50:22;14.88;;;6.70;;
70796;SDS011;63842;52.144;5.360;2022-11-04T09:52:53;13.85;;;7.07;;
70796;SDS011;63842;52.144;5.360;2022-11-04T09:57:56;12.18;;;6.63;;
70796;SDS011;63842;52.144;5.360;2022-11-04T10:00:24;13.48;;;6.05;;
70796;SDS011;63842;52.144;5.360;2022-11-04T10:11:28;16.27;;;8.10;;
70796;SDS011;63842;52.144;5.360;2022-11-04T10:14:03;22.92;;;8.10;;
70796;SDS011;63842;52.144;5.360;2022-11-04T10:19:16;18.05;;;8.20;;
70796;SDS011;63842;52.144;5.360;2022-11-04T10:26:46;16.92;;;7.53;;
70796;SDS011;63842;52.144;5.360;2022-11-04T10:29:18;17.23;;;8.85;;
70796;SDS011;63842;52.144;5.360;2022-11-04T10:31:49;15.80;;;8.15;;
70796;SDS011;63842;52.144;5.360;2022-11-04T10:34:22;19.23;;;8.23;;
70796;SDS011;63842;52.144;5.360;2022-11-04T10:36:52;15.43;;;8.57;;
70796;SDS011;63842;52.144;5.360;2022-11-04T10:39:25;16.73;;;8.73;;
70796;SDS011;63842;52.144;5.360;2022-11-04T10:41:53;19.60;;;8.98;;
70796;SDS011;63842;52.144;5.360;2022-11-04T10:44:24;19.67;;;8.77;;
70796;SDS011;63842;52.144;5.360;2022-11-04T10:52:02;16.52;;;8.30;;
70796;SDS011;63842;52.144;5.360;2022-11-04T10:54:31;20.15;;;8.60;;
70796;SDS011;63842;52.144;5.360;2022-11-04T10:57:00;15.88;;;8.20;;
70796;SDS011;63842;52.144;5.360;2022-11-04T10:59:28;18.40;;;8.45;;
70796;SDS011;63842;52.144;5.360;2022-11-04T11:01:58;17.13;;;8.65;;
70796;SDS011;63842;52.144;5.360;2022-11-04T11:04:30;16.10;;;7.95;;
70796;SDS011;63842;52.144;5.360;2022-11-04T11:06:59;15.50;;;8.02;;
70796;SDS011;63842;52.144;5.360;2022-11-04T11:12:20;18.42;;;8.13;;
70796;SDS011;63842;52.144;5.360;2022-11-04T11:17:43;14.52;;;7.38;;
70796;SDS011;63842;52.144;5.360;2022-11-04T11:20:17;18.75;;;7.68;;
70796;SDS011;63842;52.144;5.360;2022-11-04T11:22:45;14.48;;;7.10;;
70796;SDS011;63842;52.144;5.360;2022-11-04T11:27:43;14.57;;;7.00;;
70796;SDS011;63842;52.144;5.360;2022-11-04T11:30:18;14.15;;;6.68;;
70796;SDS011;63842;52.144;5.360;2022-11-04T11:32:46;15.70;;;7.45;;
70796;SDS011;63842;52.144;5.360;2022-11-04T11:35:19;16.48;;;6.47;;
70796;SDS011;63842;52.144;5.360;2022-11-04T11:37:47;15.88;;;6.53;;
70796;SDS011;63842;52.144;5.360;2022-11-04T11:42:51;15.15;;;6.55;;
70796;SDS011;63842;52.144;5.360;2022-11-04T11:45:19;13.30;;;6.43;;
70796;SDS011;63842;52.144;5.360;2022-11-04T11:47:47;16.02;;;6.57;;
70796;SDS011;63842;52.144;5.360;2022-11-04T11:50:21;14.70;;;6.47;;
70796;SDS011;63842;52.144;5.360;2022-11-04T11:52:51;16.15;;;6.53;;
70796;SDS011;63842;52.144;5.360;2022-11-04T11:55:23;13.32;;;5.22;;
70796;SDS011;63842;52.144;5.360;2022-11-04T12:01:01;11.38;;;4.85;;
70796;SDS011;63842;52.144;5.360;2022-11-04T12:03:50;11.30;;;4.95;;
70796;SDS011;63842;52.144;5.360;2022-11-04T12:14:58;11.35;;;4.40;;
70796;SDS011;63842;52.144;5.360;2022-11-04T12:27:40;10.23;;;4.18;;
70796;SDS011;63842;52.144;5.360;2022-11-04T12:30:13;11.32;;;4.25;;
70796;SDS011;63842;52.144;5.360;2022-11-04T12:42:45;10.30;;;3.83;;
70796;SDS011;63842;52.144;5.360;2022-11-04T12:47:43;12.35;;;4.20;;
70796;SDS011;63842;52.144;5.360;2022-11-04T12:52:57;11.15;;;3.55;;
70796;SDS011;63842;52.144;5.360;2022-11-04T12:55:44;11.00;;;3.58;;
70796;SDS011;63842;52.144;5.360;2022-11-04T12:59:01;9.38;;;3.58;;
70796;SDS011;63842;52.144;5.360;2022-11-04T13:04:03;8.20;;;3.17;;
70796;SDS011;63842;52.144;5.360;2022-11-04T13:06:33;7.60;;;3.00;;
70796;SDS011;63842;52.144;5.360;2022-11-04T13:11:53;9.32;;;3.25;;
70796;SDS011;63842;52.144;5.360;2022-11-04T13:14:22;7.85;;;2.97;;
70796;SDS011;63842;52.144;5.360;2022-11-04T13:16:59;9.35;;;2.88;;
70796;SDS011;63842;52.144;5.360;2022-11-04T13:22:17;8.77;;;3.25;;
70796;SDS011;63842;52.144;5.360;2022-11-04T13:24:47;10.52;;;2.95;;
70796;SDS011;63842;52.144;5.360;2022-11-04T13:27:26;9.15;;;3.15;;
70796;SDS011;63842;52.144;5.360;2022-11-04T13:30:04;11.10;;;3.85;;
70796;SDS011;63842;52.144;5.360;2022-11-04T13:32:34;10.80;;;3.25;;
70796;SDS011;63842;52.144;5.360;2022-11-04T13:35:07;8.95;;;2.70;;
70796;SDS011;63842;52.144;5.360;2022-11-04T13:37:39;8.57;;;2.30;;
70796;SDS011;63842;52.144;5.360;2022-11-04T13:40:14;8.55;;;1.92;;
70796;SDS011;63842;52.144;5.360;2022-11-04T13:45:12;7.55;;;1.80;;
70796;SDS011;63842;52.144;5.360;2022-11-04T13:47:48;5.65;;;1.50;;
70796;SDS011;63842;52.144;5.360;2022-11-04T13:50:30;5.30;;;1.30;;
70796;SDS011;63842;52.144;5.360;2022-11-04T13:52:59;2.75;;;1.00;;
70796;SDS011;63842;52.144;5.360;2022-11-04T13:55:26;3.15;;;0.60;;
70796;SDS011;63842;52.144;5.360;2022-11-04T13:57:56;2.42;;;0.40;;
70796;SDS011;63842;52.144;5.360;2022-11-04T14:00:25;2.60;;;0.50;;
70796;SDS011;63842;52.144;5.360;2022-11-04T14:02:54;3.38;;;0.70;;
70796;SDS011;63842;52.144;5.360;2022-11-04T14:10:45;2.75;;;0.70;;
70796;SDS011;63842;52.144;5.360;2022-11-04T14:18:46;3.08;;;0.60;;
70796;SDS011;63842;52.144;5.360;2022-11-04T14:23:41;0.65;;;0.35;;
70796;SDS011;63842;52.144;5.360;2022-11-04T14:26:10;2.83;;;0.40;;
70796;SDS011;63842;52.144;5.360;2022-11-04T14:28:39;1.58;;;0.90;;
70796;SDS011;63842;52.144;5.360;2022-11-04T14:31:09;2.08;;;0.50;;
70796;SDS011;63842;52.144;5.360;2022-11-04T14:38:53;4.75;;;1.48;;
70796;SDS011;63842;52.144;5.360;2022-11-04T14:43:56;3.33;;;0.80;;
70796;SDS011;63842;52.144;5.360;2022-11-04T14:48:52;4.03;;;0.73;;
70796;SDS011;63842;52.144;5.360;2022-11-04T14:51:22;4.55;;;1.10;;
70796;SDS011;63842;52.144;5.360;2022-11-04T14:53:51;5.97;;;0.90;;
70796;SDS011;63842;52.144;5.360;2022-11-04T14:56:21;3.80;;;0.90;;
70796;SDS011;63842;52.144;5.360;2022-11-04T14:59:00;4.10;;;0.93;;
70796;SDS011;63842;52.144;5.360;2022-11-04T15:01:29;7.05;;;1.20;;
70796;SDS011;63842;52.144;5.360;2022-11-04T15:04:12;5.32;;;1.23;;
70796;SDS011;63842;52.144;5.360;2022-11-04T15:06:41;4.88;;;1.40;;
70796;SDS011;63842;52.144;5.360;2022-11-04T15:09:24;3.88;;;1.10;;
70796;SDS011;63842;52.144;5.360;2022-11-04T15:12:25;3.08;;;1.10;;
70796;SDS011;63842;52.144;5.360;2022-11-04T15:15:19;2.83;;;1.00;;
70796;SDS011;63842;52.144;5.360;2022-11-04T15:17:51;5.43;;;0.95;;
70796;SDS011;63842;52.144;5.360;2022-11-04T15:20:21;3.75;;;1.17;;
70796;SDS011;63842;52.144;5.360;2022-11-04T15:22:50;1.10;;;0.80;;
70796;SDS011;63842;52.144;5.360;2022-11-04T15:25:18;3.08;;;1.10;;
70796;SDS011;63842;52.144;5.360;2022-11-04T15:27:46;2.95;;;1.08;;
70796;SDS011;63842;52.144;5.360;2022-11-04T15:30:21;3.50;;;1.20;;
70796;SDS011;63842;52.144;5.360;2022-11-04T15:32:55;4.88;;;1.20;;
70796;SDS011;63842;52.144;5.360;2022-11-04T15:35:23;4.07;;;1.30;;
70796;SDS011;63842;52.144;5.360;2022-11-04T15:37:51;4.35;;;1.40;;
70796;SDS011;63842;52.144;5.360;2022-11-04T15:40:21;4.05;;;1.60;;
70796;SDS011;63842;52.144;5.360;2022-11-04T15:42:50;4.13;;;1.30;;
70796;SDS011;63842;52.144;5.360;2022-11-04T15:47:58;4.15;;;1.27;;
70796;SDS011;63842;52.144;5.360;2022-11-04T15:50:36;4.75;;;1.15;;
70796;SDS011;63842;52.144;5.360;2022-11-04T15:53:03;4.75;;;1.20;;
70796;SDS011;63842;52.144;5.360;2022-11-04T15:55:35;4.75;;;1.10;;
70796;SDS011;63842;52.144;5.360;2022-11-04T15:58:04;3.67;;;1.00;;
70796;SDS011;63842;52.144;5.360;2022-11-04T16:00:31;3.55;;;0.80;;
70796;SDS011;63842;52.144;5.360;2022-11-04T16:03:00;3.40;;;0.98;;
70796;SDS011;63842;52.144;5.360;2022-11-04T16:05:29;3.33;;;0.80;;
70796;SDS011;63842;52.144;5.360;2022-11-04T16:10:44;3.47;;;0.90;;
70796;SDS011;63842;52.144;5.360;2022-11-04T16:18:27;2.78;;;0.90;;
70796;SDS011;63842;52.144;5.360;2022-11-04T16:20:57;2.30;;;0.75;;
70796;SDS011;63842;52.144;5.360;2022-11-04T16:23:25;4.80;;;0.88;;
70796;SDS011;63842;52.144;5.360;2022-11-04T16:25:59;3.58;;;0.90;;
70796;SDS011;63842;52.144;5.360;2022-11-04T16:28:27;2.95;;;0.90;;
70796;SDS011;63842;52.144;5.360;2022-11-04T16:30:59;2.92;;;0.70;;
70796;SDS011;63842;52.144;5.360;2022-11-04T16:33:27;2.10;;;0.60;;
70796;SDS011;63842;52.144;5.360;2022-11-04T16:35:54;2.08;;;0.70;;
70796;SDS011;63842;52.144;5.360;2022-11-04T16:38:21;6.00;;;0.95;;
70796;SDS011;63842;52.144;5.360;2022-11-04T16:40:49;5.00;;;1.08;;
70796;SDS011;63842;52.144;5.360;2022-11-04T16:43:17;4.75;;;1.02;;
70796;SDS011;63842;52.144;5.360;2022-11-04T16:45:46;4.65;;;1.33;;
70796;SDS011;63842;52.144;5.360;2022-11-04T16:48:19;3.75;;;1.20;;
70796;SDS011;63842;52.144;5.360;2022-11-04T16:50:46;4.60;;;1.10;;
70796;SDS011;63842;52.144;5.360;2022-11-04T16:53:14;5.10;;;1.48;;
70796;SDS011;63842;52.144;5.360;2022-11-04T16:55:42;5.38;;;1.40;;
70796;SDS011;63842;52.144;5.360;2022-11-04T16:58:12;4.65;;;1.30;;
70796;SDS011;63842;52.144;5.360;2022-11-04T17:00:41;5.78;;;1.38;;
70796;SDS011;63842;52.144;5.360;2022-11-04T17:03:17;4.65;;;1.25;;
70796;SDS011;63842;52.144;5.360;2022-11-04T17:05:51;4.30;;;1.40;;
70796;SDS011;63842;52.144;5.360;2022-11-04T17:08:22;4.75;;;1.40;;
70796;SDS011;63842;52.144;5.360;2022-11-04T17:10:49;4.93;;;1.42;;
70796;SDS011;63842;52.144;5.360;2022-11-04T17:13:17;4.88;;;1.27;;
70796;SDS011;63842;52.144;5.360;2022-11-04T17:15:44;8.02;;;1.65;;
70796;SDS011;63842;52.144;5.360;2022-11-04T17:18:12;4.43;;;1.40;;
70796;SDS011;63842;52.144;5.360;2022-11-04T17:20:40;6.03;;;1.55;;
70796;SDS011;63842;52.144;5.360;2022-11-04T17:23:08;8.32;;;1.70;;
70796;SDS011;63842;52.144;5.360;2022-11-04T17:25:36;3.75;;;1.30;;
70796;SDS011;63842;52.144;5.360;2022-11-04T17:28:03;4.82;;;1.42;;
70796;SDS011;63842;52.144;5.360;2022-11-04T17:30:30;9.05;;;1.70;;
70796;SDS011;63842;52.144;5.360;2022-11-04T17:32:58;8.00;;;1.50;;